sensor_id;sensor_type;location;lat;lon;timestamp;P1;durP1;ratioP1;P2;durP2;ratioP2
21402;SDS011;10862;51.886;17.078;2024-01-27T00:01:05;20.60;;;16.80;;
21402;SDS011;10862;51.886;17.078;2024-01-27T00:03:31;22.90;;;20.23;;
21402;SDS011;10862;51.886;17.078;2024-01-27T00:05:56;24.23;;;19.70;;
21402;SDS011;10862;51.886;17.078;2024-01-27T00:08:22;23.37;;;21.07;;
21402;SDS011;10862;51.886;17.078;2024-01-27T00:10:47;22.80;;;19.90;;
21402;SDS011;10862;51.886;17.078;2024-01-27T00:13:13;18.50;;;16.67;;
21402;SDS011;10862;51.886;17.078;2024-01-27T00:15:39;21.57;;;19.60;;
21402;SDS011;10862;51.886;17.078;2024-01-27T00:18:04;18.13;;;16.40;;
21402;SDS011;10862;51.886;17.078;2024-01-27T00:20:30;20.83;;;18.73;;
21402;SDS011;10862;51.886;17.078;2024-01-27T00:22:55;21.77;;;20.20;;
21402;SDS011;10862;51.886;17.078;2024-01-27T00:25:21;22.87;;;20.63;;
21402;SDS011;10862;51.886;17.078;2024-01-27T00:27:46;32.07;;;25.00;;
21402;SDS011;10862;51.886;17.078;2024-01-27T00:30:12;30.90;;;23.07;;
21402;SDS011;10862;51.886;17.078;2024-01-27T00:32:38;25.20;;;20.87;;
21402;SDS011;10862;51.886;17.078;2024-01-27T00:35:04;20.63;;;18.67;;
21402;SDS011;10862;51.886;17.078;2024-01-27T00:37:30;23.47;;;20.40;;
21402;SDS011;10862;51.886;17.078;2024-01-27T00:39:55;25.30;;;22.90;;
21402;SDS011;10862;51.886;17.078;2024-01-27T00:42:21;24.80;;;22.70;;
21402;SDS011;10862;51.886;17.078;2024-01-27T00:44:49;24.90;;;22.63;;
21402;SDS011;10862;51.886;17.078;2024-01-27T00:47:15;24.00;;;21.83;;
21402;SDS011;10862;51.886;17.078;2024-01-27T00:49:41;19.53;;;17.73;;
21402;SDS011;10862;51.886;17.078;2024-01-27T00:52:06;50.77;;;26.43;;
21402;SDS011;10862;51.886;17.078;2024-01-27T00:54:32;22.20;;;20.40;;
21402;SDS011;10862;51.886;17.078;2024-01-27T00:56:57;23.63;;;18.57;;
21402;SDS011;10862;51.886;17.078;2024-01-27T00:59:23;21.53;;;18.37;;
21402;SDS011;10862;51.886;17.078;2024-01-27T01:01:49;26.60;;;18.77;;
21402;SDS011;10862;51.886;17.078;2024-01-27T01:04:14;25.40;;;22.90;;
21402;SDS011;10862;51.886;17.078;2024-01-27T01:06:40;25.90;;;23.23;;
21402;SDS011;10862;51.886;17.078;2024-01-27T01:09:06;25.60;;;23.37;;
21402;SDS011;10862;51.886;17.078;2024-01-27T01:11:32;27.97;;;25.23;;
21402;SDS011;10862;51.886;17.078;2024-01-27T01:13:57;25.90;;;23.43;;
21402;SDS011;10862;51.886;17.078;2024-01-27T01:16:23;26.37;;;23.97;;
21402;SDS011;10862;51.886;17.078;2024-01-27T01:18:48;27.27;;;24.00;;
21402;SDS011;10862;51.886;17.078;2024-01-27T01:21:14;38.43;;;27.33;;
21402;SDS011;10862;51.886;17.078;2024-01-27T01:26:51;25.80;;;23.13;;
21402;SDS011;10862;51.886;17.078;2024-01-27T01:29:16;24.03;;;22.17;;
21402;SDS011;10862;51.886;17.078;2024-01-27T01:31:42;25.37;;;22.77;;
21402;SDS011;10862;51.886;17.078;2024-01-27T01:34:08;24.43;;;22.03;;
21402;SDS011;10862;51.886;17.078;2024-01-27T01:36:34;26.17;;;23.50;;
21402;SDS011;10862;51.886;17.078;2024-01-27T01:38:59;25.93;;;23.37;;
21402;SDS011;10862;51.886;17.078;2024-01-27T01:41:25;23.97;;;21.97;;
21402;SDS011;10862;51.886;17.078;2024-01-27T01:43:50;24.20;;;22.53;;
21402;SDS011;10862;51.886;17.078;2024-01-27T01:46:16;16.23;;;14.90;;
21402;SDS011;10862;51.886;17.078;2024-01-27T01:48:42;15.33;;;14.13;;
21402;SDS011;10862;51.886;17.078;2024-01-27T01:51:08;20.47;;;18.60;;
21402;SDS011;10862;51.886;17.078;2024-01-27T01:53:34;23.83;;;21.33;;
21402;SDS011;10862;51.886;17.078;2024-01-27T01:56:00;19.90;;;17.77;;
21402;SDS011;10862;51.886;17.078;2024-01-27T01:58:27;19.10;;;16.57;;
21402;SDS011;10862;51.886;17.078;2024-01-27T02:00:59;20.37;;;18.63;;
21402;SDS011;10862;51.886;17.078;2024-01-27T02:03:25;19.60;;;17.80;;
21402;SDS011;10862;51.886;17.078;2024-01-27T02:05:51;18.37;;;16.73;;
21402;SDS011;10862;51.886;17.078;2024-01-27T02:08:17;19.13;;;17.50;;
21402;SDS011;10862;51.886;17.078;2024-01-27T02:10:42;20.53;;;18.57;;
21402;SDS011;10862;51.886;17.078;2024-01-27T02:13:21;19.80;;;18.30;;
21402;SDS011;10862;51.886;17.078;2024-01-27T02:15:48;19.63;;;18.10;;
21402;SDS011;10862;51.886;17.078;2024-01-27T02:18:16;21.13;;;19.27;;
21402;SDS011;10862;51.886;17.078;2024-01-27T02:20:42;20.60;;;18.43;;
21402;SDS011;10862;51.886;17.078;2024-01-27T02:23:08;21.17;;;19.30;;
21402;SDS011;10862;51.886;17.078;2024-01-27T02:25:34;20.40;;;18.47;;
21402;SDS011;10862;51.886;17.078;2024-01-27T02:28:01;53.50;;;30.13;;
21402;SDS011;10862;51.886;17.078;2024-01-27T02:30:30;22.07;;;20.27;;
21402;SDS011;10862;51.886;17.078;2024-01-27T02:32:56;22.70;;;20.80;;
21402;SDS011;10862;51.886;17.078;2024-01-27T02:35:22;20.60;;;18.73;;
21402;SDS011;10862;51.886;17.078;2024-01-27T02:37:48;22.00;;;19.80;;
21402;SDS011;10862;51.886;17.078;2024-01-27T02:40:14;22.47;;;20.60;;
21402;SDS011;10862;51.886;17.078;2024-01-27T02:42:39;22.10;;;19.47;;
21402;SDS011;10862;51.886;17.078;2024-01-27T02:45:09;19.80;;;17.90;;
21402;SDS011;10862;51.886;17.078;2024-01-27T02:47:36;21.53;;;19.30;;
21402;SDS011;10862;51.886;17.078;2024-01-27T02:50:02;21.40;;;19.50;;
21402;SDS011;10862;51.886;17.078;2024-01-27T02:52:28;23.80;;;20.73;;
21402;SDS011;10862;51.886;17.078;2024-01-27T02:54:54;21.03;;;19.10;;
21402;SDS011;10862;51.886;17.078;2024-01-27T02:57:20;23.73;;;21.47;;
21402;SDS011;10862;51.886;17.078;2024-01-27T02:59:46;21.07;;;19.07;;
21402;SDS011;10862;51.886;17.078;2024-01-27T03:02:12;23.67;;;18.73;;
21402;SDS011;10862;51.886;17.078;2024-01-27T03:04:38;23.27;;;21.07;;
21402;SDS011;10862;51.886;17.078;2024-01-27T03:07:03;22.40;;;20.33;;
21402;SDS011;10862;51.886;17.078;2024-01-27T03:09:29;21.00;;;19.47;;
21402;SDS011;10862;51.886;17.078;2024-01-27T03:11:55;22.00;;;20.17;;
21402;SDS011;10862;51.886;17.078;2024-01-27T03:14:21;20.30;;;18.67;;
21402;SDS011;10862;51.886;17.078;2024-01-27T03:16:47;28.33;;;19.67;;
21402;SDS011;10862;51.886;17.078;2024-01-27T03:19:13;20.97;;;19.30;;
21402;SDS011;10862;51.886;17.078;2024-01-27T03:21:39;20.30;;;18.37;;
21402;SDS011;10862;51.886;17.078;2024-01-27T03:24:05;21.63;;;19.83;;
21402;SDS011;10862;51.886;17.078;2024-01-27T03:26:30;21.97;;;19.80;;
21402;SDS011;10862;51.886;17.078;2024-01-27T03:28:56;20.10;;;18.13;;
21402;SDS011;10862;51.886;17.078;2024-01-27T03:31:22;21.57;;;19.83;;
21402;SDS011;10862;51.886;17.078;2024-01-27T03:33:48;22.00;;;20.30;;
21402;SDS011;10862;51.886;17.078;2024-01-27T03:36:14;20.73;;;18.60;;
21402;SDS011;10862;51.886;17.078;2024-01-27T03:38:40;23.00;;;19.53;;
21402;SDS011;10862;51.886;17.078;2024-01-27T03:41:06;25.67;;;19.17;;
21402;SDS011;10862;51.886;17.078;2024-01-27T03:43:33;22.00;;;20.20;;
21402;SDS011;10862;51.886;17.078;2024-01-27T03:45:59;19.40;;;17.57;;
21402;SDS011;10862;51.886;17.078;2024-01-27T03:48:25;20.67;;;18.73;;
21402;SDS011;10862;51.886;17.078;2024-01-27T03:50:51;24.33;;;20.90;;
21402;SDS011;10862;51.886;17.078;2024-01-27T03:53:16;23.13;;;19.27;;
21402;SDS011;10862;51.886;17.078;2024-01-27T03:55:42;21.63;;;18.47;;
21402;SDS011;10862;51.886;17.078;2024-01-27T03:58:07;19.87;;;18.33;;
21402;SDS011;10862;51.886;17.078;2024-01-27T04:00:33;19.17;;;17.43;;
21402;SDS011;10862;51.886;17.078;2024-01-27T04:02:59;22.43;;;20.17;;
21402;SDS011;10862;51.886;17.078;2024-01-27T04:05:25;20.33;;;18.57;;
21402;SDS011;10862;51.886;17.078;2024-01-27T04:07:52;21.97;;;18.23;;
21402;SDS011;10862;51.886;17.078;2024-01-27T04:10:18;19.30;;;17.43;;
21402;SDS011;10862;51.886;17.078;2024-01-27T04:12:44;21.43;;;17.27;;
21402;SDS011;10862;51.886;17.078;2024-01-27T04:15:10;17.67;;;16.07;;
21402;SDS011;10862;51.886;17.078;2024-01-27T04:17:36;18.60;;;17.10;;
21402;SDS011;10862;51.886;17.078;2024-01-27T04:20:02;41.03;;;24.20;;
21402;SDS011;10862;51.886;17.078;2024-01-27T04:22:29;23.83;;;21.37;;
21402;SDS011;10862;51.886;17.078;2024-01-27T04:24:55;44.57;;;26.03;;
21402;SDS011;10862;51.886;17.078;2024-01-27T04:27:21;26.37;;;23.70;;
21402;SDS011;10862;51.886;17.078;2024-01-27T04:29:47;31.83;;;25.87;;
21402;SDS011;10862;51.886;17.078;2024-01-27T06:23:51;11.93;;;9.87;;
21402;SDS011;10862;51.886;17.078;2024-01-27T06:26:17;19.10;;;12.30;;
21402;SDS011;10862;51.886;17.078;2024-01-27T06:28:43;18.13;;;11.60;;
21402;SDS011;10862;51.886;17.078;2024-01-27T06:31:09;24.43;;;21.27;;
21402;SDS011;10862;51.886;17.078;2024-01-27T06:33:34;40.77;;;19.57;;
21402;SDS011;10862;51.886;17.078;2024-01-27T06:36:00;28.00;;;17.30;;
21402;SDS011;10862;51.886;17.078;2024-01-27T06:38:26;32.73;;;18.63;;
21402;SDS011;10862;51.886;17.078;2024-01-27T06:40:52;20.43;;;15.07;;
21402;SDS011;10862;51.886;17.078;2024-01-27T06:43:19;14.13;;;12.80;;
21402;SDS011;10862;51.886;17.078;2024-01-27T06:45:44;24.73;;;15.43;;
21402;SDS011;10862;51.886;17.078;2024-01-27T06:48:10;22.27;;;14.83;;
21402;SDS011;10862;51.886;17.078;2024-01-27T06:50:36;22.63;;;19.30;;
21402;SDS011;10862;51.886;17.078;2024-01-27T06:53:01;21.17;;;17.13;;
21402;SDS011;10862;51.886;17.078;2024-01-27T06:55:27;22.37;;;17.53;;
21402;SDS011;10862;51.886;17.078;2024-01-27T06:57:53;19.23;;;17.43;;
21402;SDS011;10862;51.886;17.078;2024-01-27T07:00:19;23.70;;;17.73;;
21402;SDS011;10862;51.886;17.078;2024-01-27T07:02:45;23.43;;;16.47;;
21402;SDS011;10862;51.886;17.078;2024-01-27T07:05:11;19.27;;;15.43;;
21402;SDS011;10862;51.886;17.078;2024-01-27T07:07:39;20.77;;;15.53;;
21402;SDS011;10862;51.886;17.078;2024-01-27T07:10:06;26.53;;;17.97;;
21402;SDS011;10862;51.886;17.078;2024-01-27T07:12:35;17.97;;;16.23;;
21402;SDS011;10862;51.886;17.078;2024-01-27T07:15:04;31.00;;;19.60;;
21402;SDS011;10862;51.886;17.078;2024-01-27T07:17:45;19.97;;;16.10;;
21402;SDS011;10862;51.886;17.078;2024-01-27T07:20:11;15.43;;;13.77;;
21402;SDS011;10862;51.886;17.078;2024-01-27T07:22:37;17.13;;;15.00;;
21402;SDS011;10862;51.886;17.078;2024-01-27T07:25:02;17.50;;;13.70;;
21402;SDS011;10862;51.886;17.078;2024-01-27T07:27:28;14.27;;;12.60;;
21402;SDS011;10862;51.886;17.078;2024-01-27T07:29:57;16.73;;;15.07;;
21402;SDS011;10862;51.886;17.078;2024-01-27T07:32:23;16.37;;;14.70;;
21402;SDS011;10862;51.886;17.078;2024-01-27T07:34:49;17.87;;;16.10;;
21402;SDS011;10862;51.886;17.078;2024-01-27T07:37:15;16.27;;;14.70;;
21402;SDS011;10862;51.886;17.078;2024-01-27T07:39:41;20.77;;;16.50;;
21402;SDS011;10862;51.886;17.078;2024-01-27T07:42:06;18.40;;;16.47;;
21402;SDS011;10862;51.886;17.078;2024-01-27T07:44:32;16.90;;;15.33;;
21402;SDS011;10862;51.886;17.078;2024-01-27T07:46:58;18.33;;;16.33;;
21402;SDS011;10862;51.886;17.078;2024-01-27T07:49:23;32.50;;;22.13;;
21402;SDS011;10862;51.886;17.078;2024-01-27T07:51:49;17.27;;;16.03;;
21402;SDS011;10862;51.886;17.078;2024-01-27T07:54:15;24.03;;;17.37;;
21402;SDS011;10862;51.886;17.078;2024-01-27T07:56:40;19.67;;;17.87;;
21402;SDS011;10862;51.886;17.078;2024-01-27T07:59:06;18.30;;;16.80;;
21402;SDS011;10862;51.886;17.078;2024-01-27T08:01:38;20.10;;;18.30;;
21402;SDS011;10862;51.886;17.078;2024-01-27T08:04:11;18.83;;;16.80;;
21402;SDS011;10862;51.886;17.078;2024-01-27T08:06:49;17.83;;;16.07;;
21402;SDS011;10862;51.886;17.078;2024-01-27T08:09:16;26.70;;;16.97;;
21402;SDS011;10862;51.886;17.078;2024-01-27T08:11:42;23.57;;;18.23;;
21402;SDS011;10862;51.886;17.078;2024-01-27T08:14:08;25.57;;;17.67;;
21402;SDS011;10862;51.886;17.078;2024-01-27T08:16:34;20.30;;;15.30;;
21402;SDS011;10862;51.886;17.078;2024-01-27T08:19:00;22.43;;;15.53;;
21402;SDS011;10862;51.886;17.078;2024-01-27T08:21:25;15.73;;;14.17;;
21402;SDS011;10862;51.886;17.078;2024-01-27T08:23:51;20.97;;;15.30;;
21402;SDS011;10862;51.886;17.078;2024-01-27T08:26:18;19.57;;;15.67;;
21402;SDS011;10862;51.886;17.078;2024-01-27T08:28:45;23.53;;;15.07;;
21402;SDS011;10862;51.886;17.078;2024-01-27T08:31:11;27.27;;;18.73;;
21402;SDS011;10862;51.886;17.078;2024-01-27T08:33:37;59.43;;;32.07;;
21402;SDS011;10862;51.886;17.078;2024-01-27T08:36:03;27.93;;;16.07;;
21402;SDS011;10862;51.886;17.078;2024-01-27T08:38:28;23.93;;;16.00;;
21402;SDS011;10862;51.886;17.078;2024-01-27T08:40:54;29.60;;;19.53;;
21402;SDS011;10862;51.886;17.078;2024-01-27T08:43:20;26.37;;;17.73;;
21402;SDS011;10862;51.886;17.078;2024-01-27T08:45:45;23.43;;;17.33;;
21402;SDS011;10862;51.886;17.078;2024-01-27T08:48:11;19.10;;;15.13;;
21402;SDS011;10862;51.886;17.078;2024-01-27T08:50:37;16.70;;;15.00;;
21402;SDS011;10862;51.886;17.078;2024-01-27T08:53:03;33.67;;;18.60;;
21402;SDS011;10862;51.886;17.078;2024-01-27T08:55:29;16.03;;;14.70;;
21402;SDS011;10862;51.886;17.078;2024-01-27T08:57:55;94.80;;;35.83;;
21402;SDS011;10862;51.886;17.078;2024-01-27T09:00:22;38.87;;;23.53;;
21402;SDS011;10862;51.886;17.078;2024-01-27T09:02:47;44.30;;;24.07;;
21402;SDS011;10862;51.886;17.078;2024-01-27T09:05:13;51.70;;;31.70;;
21402;SDS011;10862;51.886;17.078;2024-01-27T09:07:39;40.90;;;25.57;;
21402;SDS011;10862;51.886;17.078;2024-01-27T09:10:05;27.17;;;19.83;;
21402;SDS011;10862;51.886;17.078;2024-01-27T09:12:32;21.63;;;19.43;;
21402;SDS011;10862;51.886;17.078;2024-01-27T09:14:58;34.30;;;25.93;;
21402;SDS011;10862;51.886;17.078;2024-01-27T09:17:23;43.30;;;30.30;;
21402;SDS011;10862;51.886;17.078;2024-01-27T09:19:49;31.27;;;21.63;;
21402;SDS011;10862;51.886;17.078;2024-01-27T09:22:15;30.17;;;18.30;;
21402;SDS011;10862;51.886;17.078;2024-01-27T09:27:07;28.37;;;20.40;;
21402;SDS011;10862;51.886;17.078;2024-01-27T09:29:32;61.03;;;34.27;;
21402;SDS011;10862;51.886;17.078;2024-01-27T09:31:58;25.97;;;19.30;;
21402;SDS011;10862;51.886;17.078;2024-01-27T09:34:23;30.97;;;22.80;;
21402;SDS011;10862;51.886;17.078;2024-01-27T09:36:49;42.67;;;29.60;;
21402;SDS011;10862;51.886;17.078;2024-01-27T09:39:15;52.90;;;30.97;;
21402;SDS011;10862;51.886;17.078;2024-01-27T09:41:40;33.40;;;19.47;;
21402;SDS011;10862;51.886;17.078;2024-01-27T09:44:07;25.33;;;19.27;;
21402;SDS011;10862;51.886;17.078;2024-01-27T09:46:32;36.47;;;22.43;;
21402;SDS011;10862;51.886;17.078;2024-01-27T09:48:58;43.63;;;20.90;;
21402;SDS011;10862;51.886;17.078;2024-01-27T09:51:24;26.93;;;19.80;;
21402;SDS011;10862;51.886;17.078;2024-01-27T09:53:51;38.07;;;20.67;;
21402;SDS011;10862;51.886;17.078;2024-01-27T09:56:17;32.73;;;22.87;;
21402;SDS011;10862;51.886;17.078;2024-01-27T09:58:44;42.73;;;24.67;;
21402;SDS011;10862;51.886;17.078;2024-01-27T10:01:10;26.23;;;19.27;;
21402;SDS011;10862;51.886;17.078;2024-01-27T10:03:36;36.23;;;19.53;;
21402;SDS011;10862;51.886;17.078;2024-01-27T10:06:05;26.30;;;16.13;;
21402;SDS011;10862;51.886;17.078;2024-01-27T10:08:33;31.00;;;19.40;;
21402;SDS011;10862;51.886;17.078;2024-01-27T10:10:59;39.43;;;22.10;;
21402;SDS011;10862;51.886;17.078;2024-01-27T10:13:32;49.07;;;25.20;;
21402;SDS011;10862;51.886;17.078;2024-01-27T10:20:50;47.00;;;25.40;;
21402;SDS011;10862;51.886;17.078;2024-01-27T10:23:16;37.07;;;20.50;;
21402;SDS011;10862;51.886;17.078;2024-01-27T10:25:42;50.53;;;24.93;;
21402;SDS011;10862;51.886;17.078;2024-01-27T10:28:08;25.13;;;17.93;;
21402;SDS011;10862;51.886;17.078;2024-01-27T10:30:34;33.67;;;18.90;;
21402;SDS011;10862;51.886;17.078;2024-01-27T10:33:00;43.43;;;23.47;;
21402;SDS011;10862;51.886;17.078;2024-01-27T10:35:27;57.57;;;30.07;;
21402;SDS011;10862;51.886;17.078;2024-01-27T10:37:54;42.07;;;23.07;;
21402;SDS011;10862;51.886;17.078;2024-01-27T10:40:20;24.57;;;19.53;;
21402;SDS011;10862;51.886;17.078;2024-01-27T10:42:51;24.63;;;18.60;;
21402;SDS011;10862;51.886;17.078;2024-01-27T10:48:06;48.40;;;27.47;;
21402;SDS011;10862;51.886;17.078;2024-01-27T10:50:35;36.90;;;23.73;;
21402;SDS011;10862;51.886;17.078;2024-01-27T10:53:02;21.97;;;19.73;;
21402;SDS011;10862;51.886;17.078;2024-01-27T10:55:35;34.63;;;24.33;;
21402;SDS011;10862;51.886;17.078;2024-01-27T10:58:01;42.90;;;17.93;;
21402;SDS011;10862;51.886;17.078;2024-01-27T11:10:19;31.13;;;15.07;;
21402;SDS011;10862;51.886;17.078;2024-01-27T11:12:45;25.23;;;14.93;;
21402;SDS011;10862;51.886;17.078;2024-01-27T12:58:20;36.80;;;25.10;;
21402;SDS011;10862;51.886;17.078;2024-01-27T13:00:46;22.13;;;18.93;;
21402;SDS011;10862;51.886;17.078;2024-01-27T13:03:12;37.73;;;24.00;;
21402;SDS011;10862;51.886;17.078;2024-01-27T13:05:38;33.17;;;24.57;;
21402;SDS011;10862;51.886;17.078;2024-01-27T13:08:04;100.70;;;42.87;;
21402;SDS011;10862;51.886;17.078;2024-01-27T13:10:30;63.63;;;29.87;;
21402;SDS011;10862;51.886;17.078;2024-01-27T13:12:56;24.50;;;19.03;;
21402;SDS011;10862;51.886;17.078;2024-01-27T13:15:23;30.87;;;23.50;;
21402;SDS011;10862;51.886;17.078;2024-01-27T13:17:50;69.93;;;31.77;;
21402;SDS011;10862;51.886;17.078;2024-01-27T13:20:15;27.13;;;19.43;;
21402;SDS011;10862;51.886;17.078;2024-01-27T13:22:42;27.50;;;18.87;;
21402;SDS011;10862;51.886;17.078;2024-01-27T13:25:08;57.20;;;29.73;;
21402;SDS011;10862;51.886;17.078;2024-01-27T13:27:34;41.00;;;24.10;;
21402;SDS011;10862;51.886;17.078;2024-01-27T13:30:00;25.17;;;17.80;;
21402;SDS011;10862;51.886;17.078;2024-01-27T13:32:26;37.93;;;22.97;;
21402;SDS011;10862;51.886;17.078;2024-01-27T13:34:51;22.30;;;18.67;;
21402;SDS011;10862;51.886;17.078;2024-01-27T13:37:17;36.53;;;24.37;;
21402;SDS011;10862;51.886;17.078;2024-01-27T13:39:43;37.23;;;22.97;;
21402;SDS011;10862;51.886;17.078;2024-01-27T13:42:10;46.67;;;24.40;;
21402;SDS011;10862;51.886;17.078;2024-01-27T13:44:36;42.63;;;24.67;;
21402;SDS011;10862;51.886;17.078;2024-01-27T13:47:02;35.70;;;22.67;;
21402;SDS011;10862;51.886;17.078;2024-01-27T13:49:29;34.70;;;20.73;;
21402;SDS011;10862;51.886;17.078;2024-01-27T13:51:58;28.87;;;22.17;;
21402;SDS011;10862;51.886;17.078;2024-01-27T13:54:24;31.73;;;21.20;;
21402;SDS011;10862;51.886;17.078;2024-01-27T13:56:50;24.03;;;17.43;;
21402;SDS011;10862;51.886;17.078;2024-01-27T13:59:16;38.27;;;22.90;;
21402;SDS011;10862;51.886;17.078;2024-01-27T14:01:41;39.07;;;22.07;;
21402;SDS011;10862;51.886;17.078;2024-01-27T14:04:07;51.13;;;30.20;;
21402;SDS011;10862;51.886;17.078;2024-01-27T14:06:33;33.33;;;26.80;;
21402;SDS011;10862;51.886;17.078;2024-01-27T14:08:59;44.47;;;23.87;;
21402;SDS011;10862;51.886;17.078;2024-01-27T14:11:27;83.20;;;33.83;;
21402;SDS011;10862;51.886;17.078;2024-01-27T14:13:54;44.43;;;24.20;;
21402;SDS011;10862;51.886;17.078;2024-01-27T14:16:20;34.10;;;22.73;;
21402;SDS011;10862;51.886;17.078;2024-01-27T14:18:47;33.67;;;18.93;;
21402;SDS011;10862;51.886;17.078;2024-01-27T14:21:13;25.10;;;20.20;;
21402;SDS011;10862;51.886;17.078;2024-01-27T14:23:38;27.13;;;19.87;;
21402;SDS011;10862;51.886;17.078;2024-01-27T14:26:04;32.00;;;23.03;;
21402;SDS011;10862;51.886;17.078;2024-01-27T14:28:32;31.93;;;19.77;;
21402;SDS011;10862;51.886;17.078;2024-01-27T14:30:58;24.20;;;18.63;;
21402;SDS011;10862;51.886;17.078;2024-01-27T14:33:24;30.17;;;21.10;;
21402;SDS011;10862;51.886;17.078;2024-01-27T14:35:50;33.17;;;23.23;;
21402;SDS011;10862;51.886;17.078;2024-01-27T14:38:15;34.57;;;23.20;;
21402;SDS011;10862;51.886;17.078;2024-01-27T14:40:41;31.23;;;19.50;;
21402;SDS011;10862;51.886;17.078;2024-01-27T14:43:07;32.57;;;22.63;;
21402;SDS011;10862;51.886;17.078;2024-01-27T14:45:36;27.93;;;19.47;;
21402;SDS011;10862;51.886;17.078;2024-01-27T14:48:02;24.27;;;19.00;;
21402;SDS011;10862;51.886;17.078;2024-01-27T14:50:28;51.87;;;30.17;;
21402;SDS011;10862;51.886;17.078;2024-01-27T14:52:55;58.00;;;31.00;;
21402;SDS011;10862;51.886;17.078;2024-01-27T14:55:20;78.43;;;37.53;;
21402;SDS011;10862;51.886;17.078;2024-01-27T14:57:46;72.13;;;36.87;;
21402;SDS011;10862;51.886;17.078;2024-01-27T15:00:12;58.50;;;30.00;;
21402;SDS011;10862;51.886;17.078;2024-01-27T15:02:40;39.50;;;20.90;;
21402;SDS011;10862;51.886;17.078;2024-01-27T15:05:08;30.07;;;18.37;;
21402;SDS011;10862;51.886;17.078;2024-01-27T15:07:34;28.57;;;18.60;;
21402;SDS011;10862;51.886;17.078;2024-01-27T15:10:00;36.03;;;23.60;;
21402;SDS011;10862;51.886;17.078;2024-01-27T15:12:25;28.20;;;17.60;;
21402;SDS011;10862;51.886;17.078;2024-01-27T15:14:51;62.07;;;31.67;;
21402;SDS011;10862;51.886;17.078;2024-01-27T15:17:18;38.13;;;20.23;;
21402;SDS011;10862;51.886;17.078;2024-01-27T15:19:44;35.27;;;21.27;;
21402;SDS011;10862;51.886;17.078;2024-01-27T15:22:10;36.23;;;22.30;;
21402;SDS011;10862;51.886;17.078;2024-01-27T15:24:35;38.20;;;23.67;;
21402;SDS011;10862;51.886;17.078;2024-01-27T15:27:03;23.33;;;17.07;;
21402;SDS011;10862;51.886;17.078;2024-01-27T15:29:29;67.70;;;29.60;;
21402;SDS011;10862;51.886;17.078;2024-01-27T15:31:54;74.73;;;31.70;;
21402;SDS011;10862;51.886;17.078;2024-01-27T15:34:21;75.23;;;32.10;;
21402;SDS011;10862;51.886;17.078;2024-01-27T15:36:47;119.43;;;43.93;;
21402;SDS011;10862;51.886;17.078;2024-01-27T15:39:13;157.83;;;60.13;;
21402;SDS011;10862;51.886;17.078;2024-01-27T15:41:42;65.13;;;35.93;;
21402;SDS011;10862;51.886;17.078;2024-01-27T15:44:08;82.67;;;41.90;;
21402;SDS011;10862;51.886;17.078;2024-01-27T15:46:33;70.53;;;31.37;;
21402;SDS011;10862;51.886;17.078;2024-01-27T15:48:59;41.43;;;21.50;;
21402;SDS011;10862;51.886;17.078;2024-01-27T15:51:25;19.50;;;14.70;;
21402;SDS011;10862;51.886;17.078;2024-01-27T15:53:50;57.43;;;25.97;;
21402;SDS011;10862;51.886;17.078;2024-01-27T15:56:16;37.33;;;22.33;;
21402;SDS011;10862;51.886;17.078;2024-01-27T15:58:41;68.13;;;33.73;;
21402;SDS011;10862;51.886;17.078;2024-01-27T16:01:07;103.50;;;44.23;;
21402;SDS011;10862;51.886;17.078;2024-01-27T16:03:35;61.23;;;27.97;;
21402;SDS011;10862;51.886;17.078;2024-01-27T16:06:01;45.27;;;24.63;;
21402;SDS011;10862;51.886;17.078;2024-01-27T16:08:27;88.40;;;46.20;;
21402;SDS011;10862;51.886;17.078;2024-01-27T16:10:52;56.60;;;32.90;;
21402;SDS011;10862;51.886;17.078;2024-01-27T16:13:18;74.27;;;34.83;;
21402;SDS011;10862;51.886;17.078;2024-01-27T16:15:44;55.90;;;27.13;;
21402;SDS011;10862;51.886;17.078;2024-01-27T16:18:10;66.13;;;27.07;;
21402;SDS011;10862;51.886;17.078;2024-01-27T16:20:36;45.23;;;20.53;;
21402;SDS011;10862;51.886;17.078;2024-01-27T16:23:02;81.27;;;29.20;;
21402;SDS011;10862;51.886;17.078;2024-01-27T16:25:28;42.27;;;21.20;;
21402;SDS011;10862;51.886;17.078;2024-01-27T16:27:53;68.80;;;35.87;;
21402;SDS011;10862;51.886;17.078;2024-01-27T16:30:19;50.23;;;24.07;;
21402;SDS011;10862;51.886;17.078;2024-01-27T16:32:45;48.53;;;20.23;;
21402;SDS011;10862;51.886;17.078;2024-01-27T16:35:10;55.53;;;28.03;;
21402;SDS011;10862;51.886;17.078;2024-01-27T16:37:36;135.93;;;56.63;;
21402;SDS011;10862;51.886;17.078;2024-01-27T16:40:02;94.07;;;42.17;;
21402;SDS011;10862;51.886;17.078;2024-01-27T16:42:29;69.57;;;30.50;;
21402;SDS011;10862;51.886;17.078;2024-01-27T16:44:55;47.23;;;21.10;;
21402;SDS011;10862;51.886;17.078;2024-01-27T16:47:20;42.90;;;20.13;;
21402;SDS011;10862;51.886;17.078;2024-01-27T16:49:47;96.60;;;40.57;;
21402;SDS011;10862;51.886;17.078;2024-01-27T16:52:13;472.90;;;147.90;;
21402;SDS011;10862;51.886;17.078;2024-01-27T16:54:38;640.20;;;188.80;;
21402;SDS011;10862;51.886;17.078;2024-01-27T16:57:05;438.63;;;107.60;;
21402;SDS011;10862;51.886;17.078;2024-01-27T16:59:31;122.03;;;38.40;;
